STV4 LEPA-EDDK
Flight info
| Callsign | STV4 |
|---|---|
| Flight time | 1h 50m |
| Altitude | 38000 |
| Route | MEROS N853 LUMAS DCT MAXIR DCT LUSOL DCT BODRU DCT OKTET DCT IRMAR DCT KINES DCT VANAS DCT MOBLO DCT UBIMA DCT GILIR DCT PENDU DCT IXILU DCT EPL DCT JARNY DCT ROUSY M624 DIK N853 ARCKY T853 IBESA T860 ERUKI ERUKI1B |
| Aircraft | CL60/M-SADE3FGHIJ3J4J7P2RWXY/LB1V1D1 |
Departure
| Time | 2026-05-05 17:54 |
|---|---|
| Airport | Palma de Mallorca Airport (LEPA) |
Arrival
| Time | 2026-05-05 19:45 |
|---|---|
| Airport | Cologne Bonn Airport (EDDK) |
| Time | Latitude | Longitude | Altitude | Speed | Heading |
|---|---|---|---|---|---|
| 2026-05-05 16:41 | 39.55336 | 2.73628 | 37 ft | 0 kts | 58° |
| 2026-05-05 17:46 | 39.55379 | 2.73587 | 35 ft | 8 kts | 310° |
| 2026-05-05 17:46 | 39.55484 | 2.73537 | 30 ft | 1 kts | 63° |
| 2026-05-05 17:46 | 39.55497 | 2.73562 | 30 ft | 4 kts | 50° |
| 2026-05-05 17:46 | 39.55537 | 2.73560 | 29 ft | 8 kts | 329° |
| 2026-05-05 17:47 | 39.55585 | 2.73525 | 28 ft | 7 kts | 332° |
| 2026-05-05 17:47 | 39.55648 | 2.73508 | 26 ft | 11 kts | 31° |
| 2026-05-05 17:47 | 39.55696 | 2.73594 | 25 ft | 13 kts | 59° |
| 2026-05-05 17:47 | 39.55753 | 2.73712 | 25 ft | 16 kts | 58° |
| 2026-05-05 17:48 | 39.55803 | 2.73818 | 27 ft | 13 kts | 58° |
| 2026-05-05 17:48 | 39.55858 | 2.73932 | 28 ft | 15 kts | 58° |
| 2026-05-05 17:48 | 39.55918 | 2.74063 | 28 ft | 13 kts | 59° |
| 2026-05-05 17:48 | 39.55956 | 2.74144 | 28 ft | 10 kts | 60° |
| 2026-05-05 17:49 | 39.55991 | 2.74217 | 28 ft | 8 kts | 56° |
| 2026-05-05 17:49 | 39.56028 | 2.74293 | 29 ft | 11 kts | 60° |
| 2026-05-05 17:49 | 39.56041 | 2.74321 | 29 ft | 1 kts | 61° |
| 2026-05-05 17:49 | 39.56057 | 2.74356 | 28 ft | 5 kts | 58° |
| 2026-05-05 17:50 | 39.56077 | 2.74398 | 26 ft | 1 kts | 58° |
| 2026-05-05 17:50 | 39.56085 | 2.74414 | 26 ft | 4 kts | 57° |
| 2026-05-05 17:50 | 39.56092 | 2.74426 | 25 ft | 1 kts | 47° |
| 2026-05-05 17:50 | 39.56110 | 2.74440 | 25 ft | 0 kts | 19° |
| 2026-05-05 17:51 | 39.56124 | 2.74445 | 25 ft | 3 kts | 9° |
| 2026-05-05 17:51 | 39.56128 | 2.74445 | 25 ft | 0 kts | 3° |
| 2026-05-05 17:51 | 39.56152 | 2.74444 | 24 ft | 6 kts | 348° |
| 2026-05-05 17:51 | 39.56180 | 2.74428 | 24 ft | 3 kts | 328° |
| 2026-05-05 17:52 | 39.56214 | 2.74400 | 23 ft | 7 kts | 327° |
| 2026-05-05 17:52 | 39.56229 | 2.74387 | 23 ft | 5 kts | 322° |
| 2026-05-05 17:52 | 39.56244 | 2.74331 | 23 ft | 6 kts | 276° |
| 2026-05-05 17:52 | 39.56235 | 2.74288 | 23 ft | 0 kts | 238° |
| 2026-05-05 17:54 | 39.56172 | 2.74161 | 24 ft | 58 kts | 234° |
| 2026-05-05 17:54 | 39.55821 | 2.73440 | 24 ft | 128 kts | 243° |
| 2026-05-05 17:54 | 39.55293 | 2.72219 | 407 ft | 170 kts | 240° |
| 2026-05-05 17:54 | 39.54633 | 2.70812 | 1011 ft | 192 kts | 237° |
| 2026-05-05 17:55 | 39.53857 | 2.69273 | 1779 ft | 199 kts | 237° |
| 2026-05-05 17:55 | 39.53051 | 2.67674 | 2671 ft | 215 kts | 237° |
| 2026-05-05 17:55 | 39.52224 | 2.66033 | 3927 ft | 220 kts | 238° |
| 2026-05-05 17:55 | 39.51353 | 2.64304 | 4652 ft | 223 kts | 238° |
| 2026-05-05 17:56 | 39.50475 | 2.62561 | 4926 ft | 220 kts | 238° |
| 2026-05-05 17:56 | 39.49571 | 2.60868 | 4978 ft | 217 kts | 227° |
| 2026-05-05 17:56 | 39.48270 | 2.59712 | 4973 ft | 226 kts | 210° |
| 2026-05-05 17:56 | 39.46714 | 2.58673 | 4980 ft | 258 kts | 209° |
| 2026-05-05 17:57 | 39.45034 | 2.57557 | 5023 ft | 274 kts | 209° |
| 2026-05-05 17:57 | 39.43223 | 2.56408 | 6175 ft | 285 kts | 202° |
| 2026-05-05 17:57 | 39.41267 | 2.56216 | 7863 ft | 282 kts | 171° |
| 2026-05-05 17:57 | 39.39408 | 2.57375 | 8763 ft | 307 kts | 144° |
| 2026-05-05 17:58 | 39.37847 | 2.59435 | 9278 ft | 308 kts | 137° |
| 2026-05-05 17:58 | 39.36396 | 2.61477 | 9806 ft | 302 kts | 137° |
| 2026-05-05 17:58 | 39.34922 | 2.63530 | 10318 ft | 304 kts | 138° |
| 2026-05-05 17:58 | 39.33422 | 2.65577 | 10802 ft | 323 kts | 139° |
| 2026-05-05 17:59 | 39.31809 | 2.67735 | 11316 ft | 337 kts | 139° |
| 2026-05-05 17:59 | 39.30112 | 2.69971 | 11821 ft | 341 kts | 140° |
| 2026-05-05 17:59 | 39.28504 | 2.72232 | 12324 ft | 347 kts | 130° |
| 2026-05-05 17:59 | 39.27582 | 2.75149 | 12984 ft | 361 kts | 102° |
| 2026-05-05 18:00 | 39.27557 | 2.78467 | 13653 ft | 373 kts | 90° |
| 2026-05-05 18:00 | 39.27692 | 2.81861 | 14292 ft | 377 kts | 90° |
| 2026-05-05 18:00 | 39.27818 | 2.85276 | 14962 ft | 379 kts | 90° |
| 2026-05-05 18:00 | 39.27945 | 2.88742 | 15623 ft | 385 kts | 90° |
| 2026-05-05 18:01 | 39.28303 | 2.92265 | 16292 ft | 393 kts | 77° |
| 2026-05-05 18:01 | 39.29307 | 2.95688 | 16982 ft | 400 kts | 62° |
| 2026-05-05 18:01 | 39.30748 | 2.98948 | 17657 ft | 407 kts | 59° |
| 2026-05-05 18:01 | 39.32230 | 3.02233 | 18335 ft | 411 kts | 59° |
| 2026-05-05 18:02 | 39.33702 | 3.05508 | 19010 ft | 415 kts | 59° |
| 2026-05-05 18:02 | 39.35212 | 3.08872 | 19686 ft | 420 kts | 59° |
| 2026-05-05 18:02 | 39.36742 | 3.12285 | 20367 ft | 424 kts | 59° |
| 2026-05-05 18:02 | 39.38277 | 3.15711 | 21047 ft | 429 kts | 59° |
| 2026-05-05 18:03 | 39.39816 | 3.19153 | 21720 ft | 435 kts | 59° |
| 2026-05-05 18:03 | 39.41377 | 3.22646 | 22398 ft | 440 kts | 59° |
| 2026-05-05 18:03 | 39.42981 | 3.26229 | 23062 ft | 445 kts | 59° |
| 2026-05-05 18:03 | 39.44605 | 3.29760 | 23651 ft | 452 kts | 58° |
| 2026-05-05 18:04 | 39.46285 | 3.33402 | 24279 ft | 458 kts | 58° |
| 2026-05-05 18:04 | 39.47986 | 3.37096 | 24909 ft | 463 kts | 59° |
| 2026-05-05 18:04 | 39.49628 | 3.40666 | 25507 ft | 467 kts | 58° |
| 2026-05-05 18:04 | 39.51313 | 3.44333 | 26041 ft | 472 kts | 59° |
| 2026-05-05 18:05 | 39.52978 | 3.47963 | 26616 ft | 476 kts | 58° |
| 2026-05-05 18:05 | 39.54675 | 3.51665 | 27159 ft | 479 kts | 58° |
| 2026-05-05 18:05 | 39.56380 | 3.55392 | 27664 ft | 483 kts | 58° |
| 2026-05-05 18:05 | 39.58100 | 3.59155 | 28135 ft | 487 kts | 59° |
| 2026-05-05 18:06 | 39.59831 | 3.62946 | 28642 ft | 490 kts | 59° |
| 2026-05-05 18:06 | 39.60992 | 3.65491 | 29016 ft | 490 kts | 59° |
| 2026-05-05 18:06 | 39.63311 | 3.70582 | 29776 ft | 490 kts | 59° |
| 2026-05-05 18:06 | 39.65042 | 3.74388 | 30412 ft | 487 kts | 60° |
| 2026-05-05 18:07 | 39.66782 | 3.78217 | 31081 ft | 484 kts | 60° |
| 2026-05-05 18:07 | 39.68494 | 3.81990 | 31712 ft | 481 kts | 60° |
| 2026-05-05 18:07 | 39.70215 | 3.85790 | 32324 ft | 479 kts | 60° |
| 2026-05-05 18:07 | 39.71904 | 3.89521 | 32870 ft | 477 kts | 60° |
| 2026-05-05 18:08 | 39.73594 | 3.93259 | 33353 ft | 477 kts | 60° |
| 2026-05-05 18:08 | 39.75284 | 3.97002 | 33824 ft | 476 kts | 60° |
| 2026-05-05 18:08 | 39.76978 | 4.00758 | 34275 ft | 475 kts | 60° |
| 2026-05-05 18:08 | 39.78629 | 4.04424 | 34679 ft | 475 kts | 60° |
| 2026-05-05 18:09 | 39.80352 | 4.08145 | 35060 ft | 474 kts | 57° |
| 2026-05-05 18:09 | 39.82289 | 4.11576 | 35415 ft | 474 kts | 50° |
| 2026-05-05 18:09 | 39.84529 | 4.14733 | 35727 ft | 473 kts | 41° |
| 2026-05-05 18:09 | 39.86991 | 4.17497 | 36073 ft | 470 kts | 34° |
| 2026-05-05 18:10 | 39.89680 | 4.19892 | 36388 ft | 467 kts | 27° |
| 2026-05-05 18:10 | 39.92556 | 4.21876 | 36757 ft | 463 kts | 19° |
| 2026-05-05 18:10 | 39.95546 | 4.23407 | 37166 ft | 458 kts | 12° |
| 2026-05-05 18:10 | 39.98600 | 4.24479 | 37573 ft | 451 kts | 5° |
| 2026-05-05 18:11 | 40.01692 | 4.25235 | 37897 ft | 450 kts | 3° |
| 2026-05-05 18:11 | 40.07939 | 4.26695 | 37904 ft | 462 kts | 4° |
| 2026-05-05 18:12 | 40.14365 | 4.28205 | 37889 ft | 474 kts | 4° |
| 2026-05-05 18:12 | 40.20948 | 4.29757 | 37890 ft | 484 kts | 4° |
| 2026-05-05 18:13 | 40.27652 | 4.31342 | 37883 ft | 493 kts | 4° |
| 2026-05-05 18:13 | 40.34451 | 4.32954 | 37882 ft | 499 kts | 4° |
| 2026-05-05 18:14 | 40.41382 | 4.34601 | 37889 ft | 506 kts | 4° |
| 2026-05-05 18:14 | 40.48363 | 4.36264 | 37876 ft | 511 kts | 4° |
| 2026-05-05 18:15 | 40.55405 | 4.37946 | 37882 ft | 513 kts | 4° |
| 2026-05-05 18:15 | 40.62441 | 4.39631 | 37881 ft | 513 kts | 4° |
| 2026-05-05 18:16 | 40.69429 | 4.41307 | 37892 ft | 512 kts | 4° |
| 2026-05-05 18:16 | 40.76498 | 4.43006 | 37885 ft | 512 kts | 4° |
| 2026-05-05 18:17 | 40.83492 | 4.44689 | 37900 ft | 512 kts | 4° |
| 2026-05-05 18:17 | 40.90530 | 4.46387 | 37884 ft | 514 kts | 4° |
| 2026-05-05 18:18 | 40.97555 | 4.48090 | 37882 ft | 515 kts | 4° |
| 2026-05-05 18:18 | 41.04620 | 4.49806 | 37874 ft | 515 kts | 4° |
| 2026-05-05 18:19 | 41.11680 | 4.51524 | 37884 ft | 515 kts | 4° |
| 2026-05-05 18:19 | 41.18706 | 4.53237 | 37883 ft | 515 kts | 4° |
| 2026-05-05 18:20 | 41.25790 | 4.54967 | 37884 ft | 515 kts | 4° |
| 2026-05-05 18:20 | 41.32792 | 4.56681 | 37887 ft | 514 kts | 4° |
| 2026-05-05 18:21 | 41.39848 | 4.58413 | 37886 ft | 514 kts | 4° |
| 2026-05-05 18:21 | 41.46917 | 4.60151 | 37903 ft | 514 kts | 4° |
| 2026-05-05 18:22 | 41.53988 | 4.61893 | 37889 ft | 515 kts | 4° |
| 2026-05-05 18:22 | 41.60990 | 4.63622 | 37886 ft | 515 kts | 4° |
| 2026-05-05 18:23 | 41.68036 | 4.65383 | 37897 ft | 516 kts | 6° |
| 2026-05-05 18:23 | 41.74949 | 4.68338 | 37902 ft | 527 kts | 20° |
| 2026-05-05 18:24 | 41.81400 | 4.73139 | 37913 ft | 531 kts | 28° |
| 2026-05-05 18:24 | 41.87738 | 4.78244 | 37907 ft | 531 kts | 28° |
| 2026-05-05 18:25 | 41.94072 | 4.83354 | 37888 ft | 531 kts | 28° |
| 2026-05-05 18:25 | 42.00451 | 4.88511 | 37911 ft | 530 kts | 27° |
| 2026-05-05 18:26 | 42.06762 | 4.93625 | 37906 ft | 531 kts | 28° |
| 2026-05-05 18:26 | 42.13137 | 4.98801 | 37898 ft | 532 kts | 28° |
| 2026-05-05 18:27 | 42.19489 | 5.03973 | 37901 ft | 531 kts | 28° |
| 2026-05-05 18:27 | 42.25821 | 5.09138 | 37892 ft | 532 kts | 28° |
| 2026-05-05 18:28 | 42.35328 | 5.16917 | 37868 ft | 533 kts | 28° |
| 2026-05-05 18:28 | 42.41679 | 5.22130 | 37891 ft | 533 kts | 28° |
| 2026-05-05 18:29 | 42.48007 | 5.27335 | 37887 ft | 532 kts | 28° |
| 2026-05-05 18:29 | 42.54346 | 5.32562 | 37873 ft | 532 kts | 28° |
| 2026-05-05 18:30 | 42.60703 | 5.37817 | 37896 ft | 532 kts | 28° |
| 2026-05-05 18:30 | 42.67009 | 5.43042 | 37898 ft | 531 kts | 28° |
| 2026-05-05 18:31 | 42.73302 | 5.48269 | 37893 ft | 531 kts | 28° |
| 2026-05-05 18:31 | 42.79591 | 5.53504 | 37904 ft | 531 kts | 28° |
| 2026-05-05 18:32 | 42.85889 | 5.58760 | 37897 ft | 531 kts | 28° |
| 2026-05-05 18:32 | 42.92181 | 5.64023 | 37901 ft | 531 kts | 28° |
| 2026-05-05 18:33 | 42.98468 | 5.69295 | 37912 ft | 531 kts | 29° |
| 2026-05-05 18:33 | 43.04750 | 5.74576 | 37908 ft | 531 kts | 28° |
| 2026-05-05 18:34 | 43.11029 | 5.79868 | 37916 ft | 530 kts | 28° |
| 2026-05-05 18:34 | 43.17352 | 5.85209 | 37929 ft | 530 kts | 29° |
| 2026-05-05 18:35 | 43.23624 | 5.90520 | 37904 ft | 529 kts | 29° |
| 2026-05-05 18:35 | 43.29900 | 5.95847 | 37908 ft | 529 kts | 29° |
| 2026-05-05 18:36 | 43.36296 | 6.00821 | 37915 ft | 525 kts | 21° |
| 2026-05-05 18:36 | 43.43177 | 6.03958 | 37908 ft | 516 kts | 6° |
| 2026-05-05 18:37 | 43.50279 | 6.05145 | 37909 ft | 508 kts | 358° |
| 2026-05-05 18:37 | 43.57307 | 6.05847 | 37916 ft | 508 kts | 358° |
| 2026-05-05 18:38 | 43.64365 | 6.06557 | 37917 ft | 508 kts | 358° |
| 2026-05-05 18:38 | 43.71230 | 6.07265 | 37913 ft | 509 kts | 360° |
| 2026-05-05 18:39 | 43.78247 | 6.09194 | 37924 ft | 519 kts | 13° |
| 2026-05-05 18:39 | 43.84956 | 6.13148 | 37931 ft | 524 kts | 23° |
| 2026-05-05 18:40 | 43.91491 | 6.17609 | 37927 ft | 524 kts | 23° |
| 2026-05-05 18:40 | 43.98032 | 6.22081 | 37938 ft | 524 kts | 23° |
| 2026-05-05 18:41 | 44.04588 | 6.26573 | 37943 ft | 524 kts | 23° |
| 2026-05-05 18:41 | 44.11162 | 6.31089 | 37945 ft | 524 kts | 23° |
| 2026-05-05 18:42 | 44.17679 | 6.35577 | 37962 ft | 522 kts | 23° |
| 2026-05-05 18:42 | 44.24180 | 6.40063 | 37964 ft | 522 kts | 23° |
| 2026-05-05 18:43 | 44.30723 | 6.44589 | 37955 ft | 522 kts | 23° |
| 2026-05-05 18:43 | 44.37200 | 6.49080 | 37960 ft | 521 kts | 23° |
| 2026-05-05 18:44 | 44.43717 | 6.53610 | 37950 ft | 521 kts | 23° |
| 2026-05-05 18:44 | 44.50180 | 6.58113 | 37956 ft | 520 kts | 23° |
| 2026-05-05 18:45 | 44.56679 | 6.62652 | 37947 ft | 520 kts | 23° |
| 2026-05-05 18:45 | 44.63191 | 6.67211 | 37957 ft | 519 kts | 24° |
| 2026-05-05 18:46 | 44.69648 | 6.71743 | 37964 ft | 518 kts | 24° |
| 2026-05-05 18:46 | 44.76201 | 6.75927 | 37981 ft | 514 kts | 16° |
| 2026-05-05 18:47 | 44.83098 | 6.78191 | 37954 ft | 507 kts | 2° |
| 2026-05-05 18:47 | 44.90070 | 6.78390 | 37928 ft | 500 kts | 353° |
| 2026-05-05 18:48 | 44.97010 | 6.77923 | 37943 ft | 500 kts | 353° |
| 2026-05-05 18:48 | 45.04001 | 6.77459 | 37947 ft | 499 kts | 353° |
| 2026-05-05 18:49 | 45.10962 | 6.76996 | 37926 ft | 501 kts | 353° |
| 2026-05-05 18:49 | 45.17913 | 6.76533 | 37934 ft | 500 kts | 353° |
| 2026-05-05 18:50 | 45.24865 | 6.76069 | 37936 ft | 499 kts | 353° |
| 2026-05-05 18:50 | 45.31812 | 6.75605 | 37926 ft | 499 kts | 353° |
| 2026-05-05 18:51 | 45.38739 | 6.75141 | 37942 ft | 499 kts | 353° |
| 2026-05-05 18:51 | 45.45674 | 6.74675 | 37952 ft | 499 kts | 353° |
| 2026-05-05 18:52 | 45.52643 | 6.74199 | 37950 ft | 499 kts | 353° |
| 2026-05-05 18:52 | 45.59548 | 6.73726 | 37937 ft | 500 kts | 353° |
| 2026-05-05 18:53 | 45.66507 | 6.73247 | 37931 ft | 500 kts | 353° |
| 2026-05-05 18:53 | 45.73461 | 6.72768 | 37920 ft | 499 kts | 354° |
| 2026-05-05 18:54 | 45.80417 | 6.72288 | 37921 ft | 499 kts | 354° |
| 2026-05-05 18:54 | 45.87345 | 6.71817 | 37917 ft | 500 kts | 354° |
| 2026-05-05 18:55 | 45.94290 | 6.71345 | 37921 ft | 499 kts | 354° |
| 2026-05-05 18:55 | 46.01226 | 6.70872 | 37920 ft | 499 kts | 354° |
| 2026-05-05 18:56 | 46.08177 | 6.70397 | 37925 ft | 499 kts | 354° |
| 2026-05-05 18:56 | 46.14974 | 6.68917 | 37932 ft | 492 kts | 340° |
| 2026-05-05 18:57 | 46.21477 | 6.65825 | 38016 ft | 491 kts | 338° |
| 2026-05-05 18:57 | 46.24703 | 6.64253 | 37833 ft | 492 kts | 338° |
| 2026-05-05 18:57 | 46.27945 | 6.62675 | 38012 ft | 490 kts | 338° |
| 2026-05-05 18:58 | 46.34455 | 6.59496 | 37920 ft | 490 kts | 338° |
| 2026-05-05 18:58 | 46.40900 | 6.56344 | 37903 ft | 490 kts | 338° |
| 2026-05-05 18:59 | 46.47386 | 6.53163 | 37888 ft | 490 kts | 338° |
| 2026-05-05 18:59 | 46.53846 | 6.49988 | 37883 ft | 490 kts | 338° |
| 2026-05-05 19:00 | 46.60313 | 6.46801 | 37887 ft | 490 kts | 338° |
| 2026-05-05 19:00 | 46.66742 | 6.43626 | 37888 ft | 490 kts | 338° |
| 2026-05-05 19:01 | 46.73249 | 6.40404 | 37884 ft | 490 kts | 338° |
| 2026-05-05 19:01 | 46.79748 | 6.37179 | 37876 ft | 489 kts | 338° |
| 2026-05-05 19:02 | 46.86181 | 6.33978 | 37868 ft | 489 kts | 338° |
| 2026-05-05 19:02 | 46.92641 | 6.30756 | 37867 ft | 489 kts | 338° |
| 2026-05-05 19:03 | 46.99108 | 6.27521 | 37857 ft | 489 kts | 338° |
| 2026-05-05 19:03 | 47.05541 | 6.24279 | 37857 ft | 488 kts | 337° |
| 2026-05-05 19:04 | 47.11662 | 6.20110 | 37850 ft | 486 kts | 330° |
| 2026-05-05 19:04 | 47.17717 | 6.15729 | 37849 ft | 486 kts | 331° |
| 2026-05-05 19:05 | 47.23788 | 6.11329 | 37850 ft | 486 kts | 331° |
| 2026-05-05 19:05 | 47.29871 | 6.06993 | 37856 ft | 487 kts | 334° |
| 2026-05-05 19:06 | 47.36382 | 6.04103 | 37864 ft | 491 kts | 348° |
| 2026-05-05 19:06 | 47.43204 | 6.03434 | 37858 ft | 494 kts | 359° |
| 2026-05-05 19:07 | 47.50060 | 6.03591 | 37852 ft | 494 kts | 359° |
| 2026-05-05 19:07 | 47.56924 | 6.03742 | 37853 ft | 494 kts | 359° |
| 2026-05-05 19:08 | 47.63817 | 6.03895 | 37850 ft | 493 kts | 359° |
| 2026-05-05 19:08 | 47.70665 | 6.04048 | 37845 ft | 493 kts | 359° |
| 2026-05-05 19:09 | 47.77536 | 6.04227 | 37839 ft | 494 kts | 360° |
| 2026-05-05 19:09 | 47.84445 | 6.04442 | 37831 ft | 494 kts | 360° |
| 2026-05-05 19:10 | 47.91316 | 6.04656 | 37831 ft | 494 kts | 360° |
| 2026-05-05 19:10 | 47.98179 | 6.04870 | 37828 ft | 494 kts | 0° |
| 2026-05-05 19:11 | 48.05036 | 6.05085 | 37830 ft | 493 kts | 0° |
| 2026-05-05 19:11 | 48.11906 | 6.05300 | 37826 ft | 492 kts | 0° |
| 2026-05-05 19:12 | 48.18754 | 6.05516 | 37827 ft | 491 kts | 0° |
| 2026-05-05 19:12 | 48.25604 | 6.05732 | 37833 ft | 492 kts | 0° |
| 2026-05-05 19:13 | 48.32458 | 6.05954 | 37830 ft | 493 kts | 0° |
| 2026-05-05 19:13 | 48.39302 | 6.06264 | 37829 ft | 493 kts | 1° |
| 2026-05-05 19:14 | 48.46169 | 6.06580 | 37826 ft | 493 kts | 1° |
| 2026-05-05 19:14 | 48.53050 | 6.06897 | 37836 ft | 493 kts | 1° |
| 2026-05-05 19:15 | 48.59939 | 6.07215 | 37832 ft | 492 kts | 1° |
| 2026-05-05 19:15 | 48.66779 | 6.07532 | 37833 ft | 492 kts | 1° |
| 2026-05-05 19:16 | 48.73613 | 6.07848 | 37820 ft | 491 kts | 1° |
| 2026-05-05 19:16 | 48.80435 | 6.08166 | 37821 ft | 491 kts | 1° |
| 2026-05-05 19:17 | 48.87299 | 6.08486 | 37806 ft | 491 kts | 1° |
| 2026-05-05 19:17 | 48.94118 | 6.08804 | 37809 ft | 491 kts | 1° |
| 2026-05-05 19:18 | 49.00943 | 6.09124 | 37813 ft | 491 kts | 1° |
| 2026-05-05 19:18 | 49.07784 | 6.09445 | 37809 ft | 490 kts | 1° |
| 2026-05-05 19:19 | 49.14649 | 6.09768 | 37805 ft | 490 kts | 1° |
| 2026-05-05 19:19 | 49.21446 | 6.10098 | 37807 ft | 490 kts | 2° |
| 2026-05-05 19:20 | 49.27877 | 6.10438 | 37809 ft | 490 kts | 2° |
| 2026-05-05 19:20 | 49.34689 | 6.10800 | 37819 ft | 490 kts | 2° |
| 2026-05-05 19:21 | 49.41515 | 6.11163 | 37618 ft | 485 kts | 2° |
| 2026-05-05 19:21 | 49.44836 | 6.11340 | 37136 ft | 482 kts | 2° |
| 2026-05-05 19:21 | 49.48159 | 6.11512 | 36596 ft | 480 kts | 2° |
| 2026-05-05 19:22 | 49.51486 | 6.11644 | 36021 ft | 479 kts | 2° |
| 2026-05-05 19:22 | 49.54813 | 6.11770 | 35410 ft | 478 kts | 3° |
| 2026-05-05 19:22 | 49.58139 | 6.11896 | 34791 ft | 477 kts | 3° |
| 2026-05-05 19:22 | 49.61436 | 6.12021 | 34112 ft | 476 kts | 4° |
| 2026-05-05 19:23 | 49.64735 | 6.12146 | 33394 ft | 473 kts | 4° |
| 2026-05-05 19:23 | 49.68025 | 6.12272 | 32725 ft | 470 kts | 4° |
| 2026-05-05 19:23 | 49.71277 | 6.12395 | 32073 ft | 465 kts | 4° |
| 2026-05-05 19:23 | 49.74496 | 6.12518 | 31437 ft | 461 kts | 4° |
| 2026-05-05 19:24 | 49.77664 | 6.12639 | 30824 ft | 456 kts | 4° |
| 2026-05-05 19:24 | 49.80817 | 6.12760 | 30204 ft | 449 kts | 4° |
| 2026-05-05 19:24 | 49.83921 | 6.12879 | 29634 ft | 443 kts | 4° |
| 2026-05-05 19:24 | 49.86975 | 6.12979 | 29036 ft | 437 kts | 3° |
| 2026-05-05 19:25 | 49.89973 | 6.13000 | 28464 ft | 434 kts | 2° |
| 2026-05-05 19:25 | 49.92994 | 6.13015 | 27885 ft | 434 kts | 2° |
| 2026-05-05 19:25 | 49.96039 | 6.13033 | 27305 ft | 432 kts | 2° |
| 2026-05-05 19:25 | 49.99011 | 6.13048 | 26732 ft | 428 kts | 2° |
| 2026-05-05 19:26 | 50.01997 | 6.13063 | 26164 ft | 424 kts | 2° |
| 2026-05-05 19:26 | 50.04904 | 6.13079 | 25604 ft | 421 kts | 2° |
| 2026-05-05 19:26 | 50.07814 | 6.13096 | 25053 ft | 418 kts | 2° |
| 2026-05-05 19:26 | 50.10702 | 6.13111 | 24506 ft | 414 kts | 1° |
| 2026-05-05 19:27 | 50.13570 | 6.13125 | 23950 ft | 410 kts | 1° |
| 2026-05-05 19:27 | 50.16425 | 6.13141 | 23408 ft | 407 kts | 1° |
| 2026-05-05 19:27 | 50.19244 | 6.13157 | 22867 ft | 404 kts | 1° |
| 2026-05-05 19:27 | 50.20367 | 6.13164 | 22658 ft | 402 kts | 1° |
| 2026-05-05 19:28 | 50.23130 | 6.13180 | 22128 ft | 398 kts | 1° |
| 2026-05-05 19:28 | 50.25914 | 6.13198 | 21605 ft | 395 kts | 1° |
| 2026-05-05 19:28 | 50.28637 | 6.13414 | 21080 ft | 392 kts | 10° |
| 2026-05-05 19:28 | 50.31236 | 6.14709 | 20542 ft | 385 kts | 26° |
| 2026-05-05 19:29 | 50.33494 | 6.16872 | 20012 ft | 382 kts | 35° |
| 2026-05-05 19:29 | 50.35753 | 6.19201 | 19501 ft | 379 kts | 34° |
| 2026-05-05 19:29 | 50.37935 | 6.21445 | 18998 ft | 378 kts | 34° |
| 2026-05-05 19:29 | 50.40147 | 6.23717 | 18499 ft | 375 kts | 34° |
| 2026-05-05 19:30 | 50.42323 | 6.25959 | 17984 ft | 374 kts | 34° |
| 2026-05-05 19:30 | 50.44487 | 6.28186 | 17490 ft | 371 kts | 34° |
| 2026-05-05 19:30 | 50.46632 | 6.30401 | 17024 ft | 369 kts | 34° |
| 2026-05-05 19:30 | 50.48662 | 6.32829 | 16526 ft | 365 kts | 46° |
| 2026-05-05 19:31 | 50.50128 | 6.35978 | 16036 ft | 358 kts | 64° |
| 2026-05-05 19:31 | 50.51149 | 6.39581 | 15541 ft | 354 kts | 69° |
| 2026-05-05 19:31 | 50.52109 | 6.43120 | 15087 ft | 353 kts | 68° |
| 2026-05-05 19:31 | 50.53073 | 6.46651 | 14597 ft | 351 kts | 68° |
| 2026-05-05 19:32 | 50.54028 | 6.50149 | 14146 ft | 349 kts | 68° |
| 2026-05-05 19:32 | 50.54986 | 6.53667 | 13676 ft | 347 kts | 68° |
| 2026-05-05 19:32 | 50.55935 | 6.57156 | 13213 ft | 344 kts | 67° |
| 2026-05-05 19:32 | 50.56876 | 6.60620 | 12764 ft | 342 kts | 67° |
| 2026-05-05 19:33 | 50.57804 | 6.64041 | 12302 ft | 337 kts | 67° |
| 2026-05-05 19:33 | 50.58712 | 6.67393 | 11870 ft | 330 kts | 68° |
| 2026-05-05 19:33 | 50.59597 | 6.70666 | 11443 ft | 323 kts | 67° |
| 2026-05-05 19:33 | 50.60458 | 6.73933 | 11013 ft | 317 kts | 71° |
| 2026-05-05 19:34 | 50.60889 | 6.77316 | 10585 ft | 313 kts | 83° |
| 2026-05-05 19:34 | 50.61145 | 6.80702 | 10162 ft | 308 kts | 83° |
| 2026-05-05 19:34 | 50.61373 | 6.83987 | 9821 ft | 296 kts | 83° |
| 2026-05-05 19:35 | 50.61761 | 6.90136 | 9827 ft | 269 kts | 83° |
| 2026-05-05 19:35 | 50.61930 | 6.93039 | 9681 ft | 268 kts | 83° |
| 2026-05-05 19:35 | 50.62108 | 6.95966 | 9456 ft | 264 kts | 83° |
| 2026-05-05 19:35 | 50.62287 | 6.98871 | 9226 ft | 260 kts | 83° |
| 2026-05-05 19:36 | 50.62459 | 7.01720 | 9009 ft | 260 kts | 83° |
| 2026-05-05 19:36 | 50.62631 | 7.04558 | 8784 ft | 259 kts | 83° |
| 2026-05-05 19:36 | 50.62809 | 7.07404 | 8549 ft | 259 kts | 83° |
| 2026-05-05 19:36 | 50.62989 | 7.10281 | 8324 ft | 260 kts | 83° |
| 2026-05-05 19:37 | 50.63170 | 7.13123 | 8099 ft | 260 kts | 83° |
| 2026-05-05 19:37 | 50.63354 | 7.15963 | 7867 ft | 259 kts | 83° |
| 2026-05-05 19:37 | 50.63540 | 7.18768 | 7635 ft | 257 kts | 83° |
| 2026-05-05 19:37 | 50.63728 | 7.21604 | 7411 ft | 255 kts | 83° |
| 2026-05-05 19:38 | 50.63916 | 7.24408 | 7184 ft | 254 kts | 83° |
| 2026-05-05 19:38 | 50.64101 | 7.27172 | 6954 ft | 252 kts | 83° |
| 2026-05-05 19:38 | 50.64283 | 7.29944 | 6722 ft | 251 kts | 83° |
| 2026-05-05 19:38 | 50.64462 | 7.32672 | 6498 ft | 249 kts | 83° |
| 2026-05-05 19:39 | 50.64638 | 7.35396 | 6216 ft | 250 kts | 83° |
| 2026-05-05 19:39 | 50.65037 | 7.38075 | 5681 ft | 254 kts | 62° |
| 2026-05-05 19:39 | 50.66254 | 7.40102 | 5103 ft | 257 kts | 29° |
| 2026-05-05 19:39 | 50.67968 | 7.40735 | 4505 ft | 258 kts | 356° |
| 2026-05-05 19:40 | 50.69622 | 7.39637 | 3914 ft | 260 kts | 320° |
| 2026-05-05 19:40 | 50.70854 | 7.37483 | 3128 ft | 268 kts | 315° |
| 2026-05-05 19:40 | 50.72284 | 7.35640 | 2847 ft | 257 kts | 322° |
| 2026-05-05 19:40 | 50.73577 | 7.33746 | 2799 ft | 239 kts | 318° |
| 2026-05-05 19:41 | 50.74777 | 7.32053 | 2823 ft | 218 kts | 318° |
| 2026-05-05 19:41 | 50.75847 | 7.30511 | 2819 ft | 200 kts | 318° |
| 2026-05-05 19:41 | 50.76866 | 7.29047 | 2598 ft | 189 kts | 318° |
| 2026-05-05 19:41 | 50.77805 | 7.27696 | 2387 ft | 173 kts | 318° |
| 2026-05-05 19:42 | 50.78648 | 7.26483 | 2131 ft | 152 kts | 318° |
| 2026-05-05 19:42 | 50.79365 | 7.25448 | 1987 ft | 127 kts | 318° |
| 2026-05-05 19:42 | 50.80011 | 7.24516 | 1787 ft | 125 kts | 318° |
| 2026-05-05 19:42 | 50.80647 | 7.23598 | 1627 ft | 119 kts | 318° |
| 2026-05-05 19:43 | 50.81273 | 7.22701 | 1476 ft | 126 kts | 318° |
| 2026-05-05 19:43 | 50.81920 | 7.21768 | 1315 ft | 121 kts | 317° |
| 2026-05-05 19:43 | 50.82547 | 7.20848 | 1138 ft | 122 kts | 319° |
| 2026-05-05 19:43 | 50.83187 | 7.19921 | 1004 ft | 126 kts | 316° |
| 2026-05-05 19:44 | 50.83831 | 7.18980 | 814 ft | 120 kts | 319° |
| 2026-05-05 19:44 | 50.84439 | 7.18102 | 615 ft | 115 kts | 317° |
| 2026-05-05 19:44 | 50.85055 | 7.17228 | 464 ft | 123 kts | 319° |
| 2026-05-05 19:44 | 50.85694 | 7.16314 | 355 ft | 117 kts | 318° |
| 2026-05-05 19:45 | 50.86263 | 7.15491 | 286 ft | 92 kts | 318° |
| 2026-05-05 19:45 | 50.86586 | 7.15020 | 273 ft | 38 kts | 318° |
| 2026-05-05 19:45 | 50.86727 | 7.14825 | 268 ft | 17 kts | 318° |
| 2026-05-05 19:45 | 50.86813 | 7.14695 | 263 ft | 16 kts | 297° |
| 2026-05-05 19:46 | 50.86853 | 7.14530 | 260 ft | 12 kts | 290° |
| 2026-05-05 19:46 | 50.86883 | 7.14367 | 256 ft | 17 kts | 276° |
| 2026-05-05 19:46 | 50.86901 | 7.14175 | 254 ft | 12 kts | 280° |
| 2026-05-05 19:46 | 50.86919 | 7.14025 | 251 ft | 14 kts | 278° |
| 2026-05-05 19:47 | 50.86868 | 7.14006 | 252 ft | 12 kts | 144° |
| 2026-05-05 19:47 | 50.86805 | 7.14095 | 254 ft | 10 kts | 137° |
| 2026-05-05 19:47 | 50.86736 | 7.14131 | 255 ft | 12 kts | 205° |
| 2026-05-05 19:47 | 50.86689 | 7.14002 | 255 ft | 14 kts | 244° |
| 2026-05-05 19:48 | 50.86644 | 7.13840 | 256 ft | 17 kts | 248° |
| 2026-05-05 19:48 | 50.86590 | 7.13648 | 254 ft | 18 kts | 240° |
| 2026-05-05 19:48 | 50.86538 | 7.13511 | 252 ft | 10 kts | 235° |
| 2026-05-05 19:48 | 50.86504 | 7.13384 | 250 ft | 15 kts | 254° |
| 2026-05-05 19:49 | 50.86547 | 7.13215 | 246 ft | 20 kts | 314° |
| 2026-05-05 19:49 | 50.86662 | 7.13048 | 243 ft | 23 kts | 316° |
| 2026-05-05 19:49 | 50.86797 | 7.12855 | 237 ft | 27 kts | 319° |
| 2026-05-05 19:49 | 50.86924 | 7.12668 | 234 ft | 13 kts | 315° |
| 2026-05-05 19:50 | 50.86989 | 7.12574 | 233 ft | 8 kts | 318° |
| 2026-05-05 19:50 | 50.87036 | 7.12551 | 233 ft | 8 kts | 27° |
| 2026-05-05 19:50 | 50.87085 | 7.12560 | 233 ft | 2 kts | 2° |